Time;durP1;ratioP1;P1;durP2;ratioP2;P2;SDS_P1;SDS_P2;PMS_P1;PMS_P2;Temp;Humidity;BMP_temperature;BMP_pressure;BME280_temperature;BME280_humidity;BME280_pressure;Samples;Min_cycle;Max_cycle;Signal;HPM_P1;HPM_P2
2022/06/06 00:00:04;;;;;;;43.47;18.02;;;;;;;15.11;100.00;101492.69;5209041;28;20028;-71
2022/06/06 00:02:36;;;;;;;50.75;19.73;;;;;;;15.09;100.00;101491.16;5225851;28;20028;-71
2022/06/06 00:05:11;;;;;;;47.08;19.10;;;;;;;15.08;100.00;101494.88;5212687;28;20447;-71
2022/06/06 00:07:43;;;;;;;49.53;20.83;;;;;;;15.02;100.00;101501.84;5212922;28;20174;-72
2022/06/06 00:10:13;;;;;;;50.58;20.55;;;;;;;14.99;100.00;101494.94;5213222;28;20021;-71
2022/06/06 00:12:44;;;;;;;57.63;21.58;;;;;;;14.99;100.00;101488.69;5210971;28;20048;-71
2022/06/06 00:15:15;;;;;;;48.80;20.33;;;;;;;14.99;100.00;101486.81;5205150;28;20029;-71
2022/06/06 00:17:46;;;;;;;49.95;19.35;;;;;;;14.97;100.00;101488.88;5205599;28;20626;-71
2022/06/06 00:20:16;;;;;;;52.17;20.67;;;;;;;14.95;100.00;101490.91;5215663;28;20373;-71
2022/06/06 00:22:47;;;;;;;54.15;21.92;;;;;;;14.91;100.00;101486.03;5225682;28;20025;-73
2022/06/06 00:25:17;;;;;;;49.55;20.55;;;;;;;14.88;100.00;101489.94;5214636;28;20108;-71
2022/06/06 00:27:48;;;;;;;49.53;20.42;;;;;;;14.87;100.00;101482.03;5217899;28;20079;-71
2022/06/06 00:30:18;;;;;;;50.30;21.20;;;;;;;14.82;100.00;101489.84;5213211;28;20034;-71
2022/06/06 00:35:38;;;;;;;51.35;21.02;;;;;;;14.80;100.00;101497.25;5209299;28;20052;-71
2022/06/06 00:38:09;;;;;;;41.05;18.60;;;;;;;14.80;100.00;101487.28;5204619;28;20021;-71
2022/06/06 00:40:39;;;;;;;43.60;19.00;;;;;;;14.77;100.00;101491.22;5211863;28;20057;-71
2022/06/06 00:43:10;;;;;;;49.75;19.45;;;;;;;14.77;100.00;101491.22;5213939;28;20109;-71
2022/06/06 00:45:41;;;;;;;43.97;18.23;;;;;;;14.74;100.00;101486.16;5217858;28;20032;-71
2022/06/06 00:48:26;;;;;;;44.97;18.65;;;;;;;14.77;100.00;101490.38;5216507;28;20029;-71
2022/06/06 00:51:01;;;;;;;53.17;19.45;;;;;;;14.71;100.00;101491.09;5204666;28;20033;-71
2022/06/06 00:53:34;;;;;;;;;;;;;;;14.69;100.00;101488.53;5218523;28;20362;-71
2022/06/06 00:56:14;;;;;;;45.28;16.85;;;;;;;14.72;100.00;101490.91;5215240;28;19912;-71
2022/06/06 00:58:48;;;;;;;48.63;19.90;;;;;;;14.70;100.00;101492.91;5219353;28;20053;-71
2022/06/06 01:01:20;;;;;;;54.53;21.73;;;;;;;14.69;100.00;101491.25;5217869;28;20086;-71
2022/06/06 01:03:50;;;;;;;49.53;21.00;;;;;;;14.67;100.00;101487.88;5225539;28;20028;-71
2022/06/06 01:06:22;;;;;;;49.63;21.38;;;;;;;14.66;100.00;101482.66;5225506;28;20335;-71
2022/06/06 01:08:52;;;;;;;49.03;20.27;;;;;;;14.67;100.00;101479.78;5225156;28;20104;-71
2022/06/06 01:11:23;;;;;;;54.47;21.00;;;;;;;14.67;100.00;101479.78;5222206;28;20104;-71
2022/06/06 01:13:56;;;;;;;44.38;18.95;;;;;;;14.69;100.00;101476.91;5204585;28;20387;-72
2022/06/06 01:16:48;;;;;;;46.25;19.27;;;;;;;14.61;100.00;101467.00;5216417;28;20049;-71
2022/06/06 01:19:31;;;;;;;45.22;18.45;;;;;;;14.52;100.00;101462.66;5205601;28;20099;-71
2022/06/06 01:22:18;;;;;;;54.28;20.73;;;;;;;14.39;100.00;101448.84;5214693;28;20033;-71
2022/06/06 01:24:58;;;;;;;53.95;21.20;;;;;;;14.31;100.00;101452.44;5223893;28;20068;-71
2022/06/06 01:27:39;;;;;;;44.40;20.20;;;;;;;14.19;100.00;101454.66;5216605;28;20149;-71
2022/06/06 01:30:14;;;;;;;53.47;21.45;;;;;;;14.11;100.00;101452.03;5215658;28;20445;-71
2022/06/06 01:32:47;;;;;;;;;;;;;;;14.03;100.00;101460.13;5224497;28;20029;-71
2022/06/06 01:35:39;;;;;;;56.10;20.38;;;;;;;13.94;100.00;101455.78;5224638;28;19909;-71
2022/06/06 01:38:12;;;;;;;54.67;20.55;;;;;;;13.87;100.00;101460.19;5204182;28;20463;-71
2022/06/06 01:41:06;;;;;;;57.30;22.05;;;;;;;13.89;100.00;101463.56;5218250;28;20106;-71
2022/06/06 01:43:55;;;;;;;52.40;20.33;;;;;;;13.94;100.00;101464.72;5221761;28;20419;-71
2022/06/06 01:46:28;;;;;;;52.63;21.50;;;;;;;13.96;100.00;101468.09;5215742;28;20025;-71
2022/06/06 01:49:00;;;;;;;50.40;21.08;;;;;;;14.01;100.00;101472.97;5218048;28;20033;-71
2022/06/06 01:51:31;;;;;;;56.92;21.55;;;;;;;14.04;100.00;101475.31;5217610;28;20032;-71
2022/06/06 01:54:03;;;;;;;53.10;20.58;;;;;;;13.97;100.00;101468.94;5224985;28;20032;-70
2022/06/06 01:56:40;;;;;;;54.28;20.92;;;;;;;13.96;100.00;101478.88;5211192;28;20029;-71
2022/06/06 01:59:10;;;;;;;55.38;21.95;;;;;;;14.00;100.00;101476.66;5215011;28;20390;-72
2022/06/06 02:01:41;;;;;;;57.55;21.52;;;;;;;14.05;100.00;101482.38;5211764;28;20099;-71
2022/06/06 02:04:12;;;;;;;56.75;21.42;;;;;;;14.05;100.00;101468.03;5228751;28;20056;-71
2022/06/06 02:06:43;;;;;;;49.95;20.67;;;;;;;14.04;100.00;101466.38;5215504;28;20025;-71
2022/06/06 02:09:14;;;;;;;45.63;20.15;;;;;;;13.98;100.00;101467.91;5228730;28;20032;-71
2022/06/06 02:11:45;;;;;;;47.83;20.02;;;;;;;13.88;100.00;101467.28;5228281;28;20025;-71
2022/06/06 02:14:15;;;;;;;49.78;19.23;;;;;;;13.77;100.00;101468.47;5227962;28;20549;-71
2022/06/06 02:16:46;;;;;;;47.35;19.20;;;;;;;13.62;100.00;101464.81;5208085;28;20029;-71
2022/06/06 02:19:17;;;;;;;49.60;20.55;;;;;;;13.59;100.00;101459.75;5221360;28;20087;-72
2022/06/06 02:21:47;;;;;;;51.92;19.35;;;;;;;13.51;100.00;101463.31;5217078;28;20021;-71
2022/06/06 02:24:18;;;;;;;48.70;19.25;;;;;;;13.43;100.00;101466.00;5211336;28;20037;-71
2022/06/06 02:26:48;;;;;;;45.33;18.67;;;;;;;13.36;100.00;101478.47;5213421;28;20021;-72
2022/06/06 02:29:19;;;;;;;45.08;19.63;;;;;;;13.30;100.00;101471.88;5207677;28;20033;-72
2022/06/06 02:31:50;;;;;;;50.33;19.17;;;;;;;13.20;100.00;101468.50;5208060;28;20184;-71
2022/06/06 02:34:20;;;;;;;55.78;20.48;;;;;;;13.13;100.00;101472.88;5220053;28;20021;-71
2022/06/06 02:36:51;;;;;;;52.60;20.70;;;;;;;13.08;100.00;101465.28;5220319;28;20027;-71
2022/06/06 02:39:22;;;;;;;46.70;17.75;;;;;;;13.06;100.00;101469.19;5211226;28;20025;-71
2022/06/06 02:41:53;;;;;;;42.47;16.88;;;;;;;12.96;100.00;101472.03;5213454;28;20493;-71
2022/06/06 02:44:24;;;;;;;37.70;15.98;;;;;;;12.98;100.00;101472.69;5216190;28;20029;-72
2022/06/06 02:46:54;;;;;;;34.83;15.38;;;;;;;12.96;100.00;101480.13;5212007;28;20498;-71
2022/06/06 02:49:25;;;;;;;39.47;15.63;;;;;;;12.98;100.00;101478.09;5207180;28;20037;-71
2022/06/06 02:51:55;;;;;;;47.80;16.23;;;;;;;12.97;100.00;101476.41;5220488;28;20025;-71
2022/06/06 02:54:26;;;;;;;44.25;15.48;;;;;;;12.95;100.00;101468.50;5218604;28;20486;-71
2022/06/06 02:56:58;;;;;;;41.10;16.08;;;;;;;12.91;100.00;101472.53;5209750;28;20029;-71
2022/06/06 02:59:32;;;;;;;33.55;15.63;;;;;;;12.85;100.00;101473.19;5218354;28;20017;-70
2022/06/06 03:02:03;;;;;;;37.90;16.03;;;;;;;12.78;100.00;101466.78;5220928;28;20040;-71
2022/06/06 03:04:34;;;;;;;44.17;16.77;;;;;;;12.73;100.00;101470.97;5207539;28;20025;-70
2022/06/06 03:07:38;;;;;;;46.83;18.42;;;;;;;12.70;100.00;101461.38;5227695;28;20048;-71
2022/06/06 03:10:25;;;;;;;45.55;17.58;;;;;;;12.61;100.00;101457.84;5220832;28;20033;-72
2022/06/06 03:13:20;;;;;;;48.80;17.83;;;;;;;12.55;100.00;101454.94;5205973;28;20026;-71
2022/06/06 03:22:13;;;;;;;45.78;18.38;;;;;;;12.39;100.00;101461.13;5206734;28;20022;-71
2022/06/06 03:24:58;;;;;;;44.00;19.10;;;;;;;12.28;100.00;101462.25;5211687;28;20017;-71
2022/06/06 03:27:54;;;;;;;49.45;19.42;;;;;;;12.25;100.00;101459.03;5221948;28;20029;-71
2022/06/06 03:30:40;;;;;;;45.00;19.13;;;;;;;12.24;100.00;101462.75;5226880;28;20017;-70
2022/06/06 03:33:39;;;;;;;50.35;18.52;;;;;;;12.21;100.00;101472.00;5214929;28;20028;-70
2022/06/06 03:36:28;;;;;;;40.05;16.83;;;;;;;12.18;100.00;101472.31;5206350;28;20025;-71
2022/06/06 03:39:16;;;;;;;42.88;17.35;;;;;;;12.18;100.00;101480.38;5219963;28;20036;-71
2022/06/06 03:42:12;;;;;;;44.80;17.23;;;;;;;12.18;100.00;101478.53;5227123;28;20020;-71
2022/06/06 03:44:50;;;;;;;36.83;16.67;;;;;;;12.15;100.00;101470.81;5226755;28;20029;-70
2022/06/06 03:47:48;;;;;;;38.22;15.75;;;;;;;12.14;100.00;101487.06;5213318;28;20028;-71
2022/06/06 03:50:27;;;;;;;32.80;14.05;;;;;;;12.10;100.00;101483.88;5212987;28;20095;-71
2022/06/06 03:53:31;;;;;;;38.08;15.23;;;;;;;12.07;100.00;101499.50;5226916;28;20486;-72
2022/06/06 03:56:20;;;;;;;35.88;14.85;;;;;;;12.09;100.00;101501.00;5205429;28;20056;-71
2022/06/06 03:58:52;;;;;;;29.73;13.98;;;;;;;12.08;100.00;101502.00;5226524;28;20024;-72
2022/06/06 04:01:23;;;;;;;31.65;13.63;;;;;;;12.07;100.00;101503.03;5212954;28;20032;-71
2022/06/06 04:03:57;;;;;;;27.77;11.63;;;;;;;12.11;100.00;101503.56;5218657;28;20025;-70
2022/06/06 04:06:30;;;;;;;29.95;11.52;;;;;;;12.10;100.00;101499.19;5219210;28;20087;-71
2022/06/06 04:09:02;;;;;;;23.65;10.52;;;;;;;12.11;100.00;101496.31;5216915;28;20052;-70
2022/06/06 04:11:54;;;;;;;27.05;11.52;;;;;;;12.08;100.00;101502.00;5208512;28;20021;-70
2022/06/06 04:15:02;;;;;;;24.15;10.93;;;;;;;12.05;100.00;101494.28;5206989;28;20025;-71
2022/06/06 04:17:43;;;;;;;23.45;9.90;;;;;;;12.05;100.00;101498.78;5224869;28;20033;-70
2022/06/06 04:20:36;;;;;;;23.55;10.48;;;;;;;12.05;100.00;101501.47;5215643;28;20153;-72
2022/06/06 04:23:22;;;;;;;23.60;9.82;;;;;;;12.09;100.00;101501.00;5219024;28;20021;-70
2022/06/06 04:26:10;;;;;;;26.30;10.27;;;;;;;12.06;100.00;101506.72;5205206;28;20375;-71
2022/06/06 04:28:42;;;;;;;26.05;10.45;;;;;;;12.10;100.00;101524.22;5205371;28;20072;-71
2022/06/06 04:31:37;;;;;;;23.38;10.40;;;;;;;12.12;100.00;101516.84;5218314;28;20029;-71
2022/06/06 04:34:18;;;;;;;21.80;9.43;;;;;;;12.17;100.00;101513.66;5222486;28;20029;-71
2022/06/06 04:36:58;;;;;;;24.60;9.63;;;;;;;12.22;100.00;101513.19;5213651;28;20017;-71
2022/06/06 04:39:54;;;;;;;22.08;9.68;;;;;;;12.23;100.00;101515.72;5208290;28;20064;-71
2022/06/06 04:42:43;;;;;;;21.15;8.52;;;;;;;12.24;100.00;101512.00;5210255;28;20576;-71
2022/06/06 04:45:25;;;;;;;19.75;9.75;;;;;;;12.29;100.00;101506.16;5223865;28;20086;-70
2022/06/06 04:47:58;;;;;;;19.08;8.15;;;;;;;12.30;100.00;101495.25;5205726;28;20060;-71
2022/06/06 04:50:30;;;;;;;23.55;9.40;;;;;;;12.41;100.00;101491.41;5222766;28;20025;-71
2022/06/06 04:53:21;;;;;;;17.50;8.07;;;;;;;12.47;100.00;101498.00;5211967;28;20026;-71
2022/06/06 04:55:55;;;;;;;19.75;7.68;;;;;;;12.55;100.00;101488.09;5204635;28;20396;-71
2022/06/06 04:58:28;;;;;;;13.18;7.25;;;;;;;12.60;100.00;101474.13;5207682;28;20021;-70
2022/06/06 05:01:01;;;;;;;16.20;6.88;;;;;;;12.69;100.00;101476.69;5214407;28;20043;-69
2022/06/06 05:03:32;;;;;;;12.27;6.60;;;;;;;12.76;100.00;101492.19;5209837;28;20123;-71
2022/06/06 05:06:31;;;;;;;16.08;6.45;;;;;;;12.81;100.00;101485.31;5211257;28;20390;-71
2022/06/06 05:09:30;;;;;;;12.48;6.50;;;;;;;12.77;100.00;101486.63;5209770;28;20025;-71
2022/06/06 05:12:17;;;;;;;15.15;5.82;;;;;;;12.77;100.00;101489.34;5204479;28;20443;-71
2022/06/06 05:14:58;;;;;;;13.18;6.38;;;;;;;12.81;100.00;101485.31;5204065;28;20076;-70
2022/06/06 05:17:46;;;;;;;11.68;5.07;;;;;;;12.84;100.00;101481.41;5204189;28;20087;-71
2022/06/06 05:20:24;;;;;;;14.10;5.35;;;;;;;12.92;100.00;101493.06;5225065;28;20078;-71
2022/06/06 05:23:01;;;;;;;9.18;4.63;;;;;;;13.00;100.00;101484.13;5206665;28;20021;-71
2022/06/06 05:25:46;;;;;;;7.57;4.32;;;;;;;13.13;100.00;101487.19;5203661;28;20368;-71
2022/06/06 05:28:27;;;;;;;9.90;4.28;;;;;;;13.31;100.00;101488.94;5216662;28;20540;-71
2022/06/06 05:31:37;;;;;;;9.90;4.25;;;;;;;13.39;100.00;101486.22;5219942;28;20052;-71
2022/06/06 05:34:14;;;;;;;10.35;4.05;;;;;;;13.44;100.00;101483.84;5219344;28;20025;-70
2022/06/06 05:36:52;;;;;;;11.45;4.00;;;;;;;13.52;100.00;101486.56;5224758;28;20024;-72
2022/06/06 05:39:32;;;;;;;12.68;3.75;;;;;;;13.64;100.00;101478.94;5207267;28;20029;-69
2022/06/06 05:42:21;;;;;;;7.00;3.50;;;;;;;13.61;100.00;101477.44;5216948;28;20025;-69
2022/06/06 05:45:08;;;;;;;8.05;3.70;;;;;;;13.63;100.00;101478.09;5204231;28;20068;-69
2022/06/06 05:47:51;;;;;;;8.68;3.30;;;;;;;13.54;100.00;101476.44;5203794;28;20045;-69
2022/06/06 05:50:59;;;;;;;8.93;3.88;;;;;;;13.50;100.00;101493.94;5203749;28;20061;-68
2022/06/06 05:53:54;;;;;;;8.52;3.22;;;;;;;13.40;100.00;101487.88;5203943;28;20026;-69
2022/06/06 05:56:55;;;;;;;7.78;3.28;;;;;;;13.36;100.00;101489.25;5217430;28;20036;-68
2022/06/06 06:00:00;;;;;;;9.13;3.33;;;;;;;13.34;100.00;101489.41;5224536;28;20032;-69
2022/06/06 06:02:49;;;;;;;7.97;3.47;;;;;;;13.42;100.00;101485.88;5206603;28;20029;-68
2022/06/06 06:05:47;;;;;;;7.50;2.70;;;;;;;14.25;100.00;101480.13;5218180;28;20086;-69
2022/06/06 06:08:34;;;;;;;9.43;2.50;;;;;;;15.26;100.00;101488.16;5221362;28;20032;-69
2022/06/06 06:11:34;;;;;;;2.22;2.03;;;;;;;15.95;100.00;101479.06;5221343;28;20048;-69
2022/06/06 06:14:21;;;;;;;3.35;1.90;;;;;;;16.93;100.00;101481.38;5208495;28;20030;-69
2022/06/06 06:16:58;;;;;;;6.13;1.75;;;;;;;17.63;100.00;101479.72;5201390;28;20037;-69
2022/06/06 06:19:37;;;;;;;2.70;1.85;;;;;;;17.52;100.00;101482.94;5204781;28;20017;-69
2022/06/06 06:22:08;;;;;;;5.10;2.03;;;;;;;16.96;100.00;101488.25;5220943;28;20086;-70
2022/06/06 06:24:42;;;;;;;6.65;1.98;;;;;;;16.66;100.00;101482.91;5221673;28;20502;-69
2022/06/06 06:27:14;;;;;;;3.85;1.58;;;;;;;17.28;100.00;101486.94;5215032;28;20044;-69
2022/06/06 06:29:45;;;;;;;2.33;1.38;;;;;;;17.51;100.00;101479.38;5221519;28;20035;-69
2022/06/06 06:32:48;;;;;;;2.78;1.55;;;;;;;17.99;100.00;101492.28;5219898;28;20033;-70
2022/06/06 06:35:46;;;;;;;5.55;1.50;;;;;;;17.87;100.00;101486.56;5219839;28;20020;-69
2022/06/06 06:38:34;;;;;;;4.18;1.38;;;;;;;18.79;100.00;101478.06;5212361;28;20064;-70
2022/06/06 06:41:14;;;;;;;5.80;1.17;;;;;;;18.77;100.00;101482.84;5203209;28;20475;-69
2022/06/06 06:44:07;;;;;;;5.55;1.17;;;;;;;19.15;100.00;101488.56;5217590;28;20471;-70
2022/06/06 06:46:57;;;;;;;5.97;1.48;;;;;;;19.37;100.00;101491.09;5221899;28;20061;-70
2022/06/06 06:49:39;;;;;;;4.13;1.52;;;;;;;19.34;100.00;101481.47;5225123;28;20440;-70
2022/06/06 06:52:11;;;;;;;3.78;1.67;;;;;;;18.97;100.00;101488.31;5224413;28;20021;-70
2022/06/06 06:55:11;;;;;;;1.85;1.30;;;;;;;19.22;100.00;101491.28;5224781;28;20064;-70
2022/06/06 06:58:01;;;;;;;5.97;1.75;;;;;;;19.51;100.00;101486.50;5225256;28;20025;-69
2022/06/06 07:00:41;;;;;;;4.60;1.45;;;;;;;19.32;100.00;101485.44;5225186;28;20393;-69
2022/06/06 07:10:13;;;;;;;2.40;1.00;;;;;;;19.85;100.00;101489.03;5217573;28;20028;-69
2022/06/06 07:12:59;;;;;;;7.32;1.95;;;;;;;19.82;100.00;101489.44;5219516;28;20024;-69
2022/06/06 07:15:43;;;;;;;3.05;1.33;;;;;;;19.28;100.00;101503.25;5224091;28;20029;-71
2022/06/06 07:18:16;;;;;;;4.25;1.40;;;;;;;19.62;100.00;101497.63;5210540;28;20059;-70
2022/06/06 07:20:49;;;;;;;6.38;1.50;;;;;;;19.52;100.00;101499.06;5224706;28;20032;-70
2022/06/06 07:23:22;;;;;;;4.65;1.35;;;;;;;19.96;100.00;101503.88;5215355;28;20104;-70
2022/06/06 07:25:56;;;;;;;3.33;1.55;;;;;;;20.08;100.00;101495.88;5219570;28;20070;-69
2022/06/06 07:28:26;;;;;;;7.88;1.88;;;;;;;20.83;100.00;101501.69;5215868;28;20390;-70
2022/06/06 07:31:14;;;;;;;3.38;1.50;;;;;;;20.46;100.00;101485.06;5219553;28;20025;-70
2022/06/06 07:34:03;;;;;;;7.60;2.00;;;;;;;21.07;100.00;101491.91;5217684;28;20028;-70
2022/06/06 07:36:53;;;;;;;4.40;1.65;;;;;;;21.21;100.00;101494.31;5213194;28;20025;-70
2022/06/06 07:39:34;;;;;;;4.85;1.65;;;;;;;20.62;100.00;101491.94;5220275;28;20035;-70
2022/06/06 07:42:19;;;;;;;6.88;1.77;;;;;;;20.33;100.00;101496.00;5206139;28;20025;-70
2022/06/06 07:45:13;;;;;;;5.57;1.70;;;;;;;19.67;100.00;101494.25;5224089;28;20124;-69
2022/06/06 07:48:01;;;;;;;5.20;2.05;;;;;;;19.38;100.00;101499.06;5223938;28;20029;-69
2022/06/06 07:50:39;;;;;;;5.13;1.77;;;;;;;19.02;100.00;101510.31;5210313;28;20033;-69
2022/06/06 07:53:37;;;;;;;7.75;1.80;;;;;;;18.35;100.00;101497.50;5224769;28;20025;-70
2022/06/06 07:56:45;;;;;;;3.05;1.95;;;;;;;17.56;100.00;101504.06;5226103;28;20060;-69
2022/06/06 07:59:38;;;;;;;6.00;2.15;;;;;;;17.13;100.00;101503.25;5223492;28;20032;-70
2022/06/06 08:02:26;;;;;;;2.58;1.50;;;;;;;16.96;100.00;101501.81;5215568;28;20016;-69
2022/06/06 08:05:25;;;;;;;4.13;2.00;;;;;;;16.92;100.00;101501.38;5221286;28;20086;-70
2022/06/06 08:08:20;;;;;;;5.13;1.70;;;;;;;17.43;100.00;101497.69;5208916;28;20025;-69
2022/06/06 08:10:51;;;;;;;4.75;1.95;;;;;;;17.84;100.00;101489.69;5223610;28;20082;-69
2022/06/06 08:13:38;;;;;;;4.28;1.65;;;;;;;18.00;100.00;101483.94;5223307;28;20025;-69
2022/06/06 08:16:13;;;;;;;4.47;1.95;;;;;;;19.02;100.00;101499.41;5219734;28;20021;-70
2022/06/06 08:19:15;;;;;;;3.28;1.55;;;;;;;19.13;100.00;101492.56;5202573;28;20033;-69
2022/06/06 08:21:49;;;;;;;5.03;1.98;;;;;;;19.51;100.00;101498.22;5212877;28;20108;-70
2022/06/06 08:24:38;;;;;;;4.18;2.30;;;;;;;19.50;100.00;101493.84;5223044;28;20032;-70
2022/06/06 08:27:12;;;;;;;6.03;2.08;;;;;;;20.23;100.00;101493.75;5217617;28;20032;-70
2022/06/06 08:29:44;;;;;;;6.03;1.40;;;;;;;20.63;100.00;101489.03;5223343;28;20032;-70
2022/06/06 08:32:16;;;;;;;11.27;2.80;;;;;;;20.56;100.00;101485.47;5222844;28;20021;-70
2022/06/06 08:34:48;;;;;;;5.10;1.73;;;;;;;20.40;100.00;101491.38;5223253;28;20032;-70
2022/06/06 08:37:41;;;;;;;5.82;1.67;;;;;;;19.79;100.00;101487.16;5222232;28;20031;-70
2022/06/06 08:40:49;;;;;;;5.88;1.80;;;;;;;19.49;100.00;101494.88;5212373;28;20029;-69
2022/06/06 08:43:36;;;;;;;2.83;1.77;;;;;;;18.67;100.00;101492.41;5214931;28;20033;-69
2022/06/06 08:46:38;;;;;;;7.43;2.20;;;;;;;18.85;100.00;101498.13;5209748;28;20040;-70
2022/06/06 08:52:21;;;;;;;12.73;2.15;;;;;;;17.48;100.00;101479.81;5220585;28;20044;-69
2022/06/06 08:55:21;;;;;;;5.10;2.00;;;;;;;16.97;100.00;101493.50;5209102;28;20197;-69
2022/06/06 08:58:19;;;;;;;6.55;2.30;;;;;;;17.14;100.00;101482.41;5223201;28;20526;-70
2022/06/06 09:01:21;;;;;;;4.85;1.75;;;;;;;18.28;100.00;101478.47;5212775;28;20497;-70
2022/06/06 09:04:34;;;;;;;2.05;1.88;;;;;;;19.19;100.00;101482.72;5210671;28;20112;-70
2022/06/06 09:07:42;;;;;;;4.90;1.90;;;;;;;20.03;100.00;101474.75;5214730;28;20053;-70
2022/06/06 09:10:44;;;;;;;3.13;1.52;;;;;;;20.61;100.00;101474.75;5221406;28;20471;-70
2022/06/06 09:13:45;;;;;;;4.65;1.60;;;;;;;21.30;100.00;101472.22;5222440;28;20061;-70
2022/06/06 09:16:35;;;;;;;4.90;1.73;;;;;;;20.68;100.00;101482.88;5217919;28;20033;-70
2022/06/06 09:19:24;;;;;;;6.43;1.40;;;;;;;20.71;100.00;101479.75;5213252;28;20386;-70
2022/06/06 09:22:09;;;;;;;4.18;1.70;;;;;;;21.21;100.00;101482.56;5211630;28;20032;-70
2022/06/06 09:25:17;;;;;;;4.57;1.25;;;;;;;21.58;100.00;101464.44;5222135;28;20075;-70
2022/06/06 09:28:25;;;;;;;3.67;1.70;;;;;;;21.40;100.00;101467.13;5221794;28;20028;-70
2022/06/06 09:31:35;;;;;;;4.55;1.77;;;;;;;21.50;100.00;101464.75;5222571;28;20097;-70
2022/06/06 09:34:24;;;;;;;5.25;1.52;;;;;;;21.37;100.00;101476.59;5218004;28;20029;-70
2022/06/06 09:37:06;;;;;;;5.57;1.55;;;;;;;20.51;100.00;101465.38;5215201;28;20474;-70
2022/06/06 09:40:02;;;;;;;6.22;1.60;;;;;;;19.62;100.00;101464.97;5216039;28;20033;-70
2022/06/06 09:42:37;;;;;;;3.03;1.45;;;;;;;19.84;100.00;101467.47;5208383;28;20025;-70
2022/06/06 09:45:26;;;;;;;;;;;;;;;19.61;100.00;101473.34;5220625;28;20529;-69
2022/06/06 09:48:16;;;;;;;3.33;1.65;;;;;;;20.44;100.00;101458.03;5213050;28;20003;-70
2022/06/06 09:50:47;;;;;;;3.92;1.58;;;;;;;20.34;100.00;101454.94;5214843;28;20510;-70
2022/06/06 10:00:20;;;;;;;5.97;1.90;;;;;;;18.73;100.00;101462.56;5222225;28;20028;-70
2022/06/06 10:03:06;;;;;;;4.18;1.50;;;;;;;18.90;100.00;101460.31;5221362;28;20094;-70
2022/06/06 10:06:06;;;;;;;4.93;1.10;;;;;;;18.54;100.00;101460.59;5221495;28;20033;-70
2022/06/06 10:08:55;;;;;;;7.82;1.70;;;;;;;17.98;100.00;101467.03;5201293;28;20041;-70
2022/06/06 10:12:02;;;;;;;3.15;1.10;;;;;;;18.18;100.00;101467.13;5218764;28;20391;-70
2022/06/06 10:14:49;;;;;;;2.42;1.13;;;;;;;18.32;100.00;101463.44;5217615;28;20045;-70
2022/06/06 10:17:39;;;;;;;7.90;1.42;;;;;;;18.95;100.00;101465.13;5200492;28;20033;-70
2022/06/06 10:20:36;;;;;;;1.52;1.05;;;;;;;19.86;100.00;101451.72;5221949;28;20032;-70
2022/06/06 10:23:25;;;;;;;2.05;0.88;;;;;;;20.21;100.00;101446.81;5212775;28;20027;-70
2022/06/06 10:26:14;;;;;;;1.58;1.13;;;;;;;20.29;100.00;101448.47;5221721;28;20083;-70
2022/06/06 10:29:19;;;;;;;2.47;0.82;;;;;;;20.36;100.00;101460.16;5218753;28;20715;-70
2022/06/06 10:32:13;;;;;;;7.30;1.98;;;;;;;20.46;100.00;101446.09;5213509;28;20034;-70
2022/06/06 10:35:11;;;;;;;1.92;0.80;;;;;;;20.99;100.00;101445.81;5214151;28;20025;-70
2022/06/06 10:38:00;;;;;;;7.82;1.40;;;;;;;20.93;100.00;101442.03;5210702;28;20036;-70
2022/06/06 10:40:49;;;;;;;3.67;1.35;;;;;;;20.00;100.00;101442.47;5209054;28;20025;-70
2022/06/06 10:43:28;;;;;;;6.30;1.23;;;;;;;19.65;100.00;101441.94;5218234;28;20409;-70
2022/06/06 10:46:24;;;;;;;4.22;1.15;;;;;;;19.80;100.00;101445.25;5225415;28;20013;-70
2022/06/06 10:49:32;;;;;;;1.17;1.00;;;;;;;19.62;100.00;101440.47;5225788;28;20064;-70
2022/06/06 10:52:21;;;;;;;2.65;1.13;;;;;;;19.85;100.00;101442.72;5225404;28;20108;-70
2022/06/06 10:55:29;;;;;;;1.50;1.00;;;;;;;19.76;100.00;101444.00;5224462;28;20040;-70
2022/06/06 10:58:15;;;;;;;3.30;1.20;;;;;;;19.89;100.00;101440.44;5224981;28;20072;-70
2022/06/06 11:01:07;;;;;;;2.03;1.15;;;;;;;19.86;100.00;101444.41;5225466;28;20029;-70
2022/06/06 11:03:51;;;;;;;4.93;1.60;;;;;;;19.20;100.00;101443.59;5224162;28;20021;-70
2022/06/06 11:06:34;;;;;;;3.20;1.20;;;;;;;18.77;100.00;101461.09;5223177;28;20025;-70
2022/06/06 11:09:04;;;;;;;4.80;1.60;;;;;;;18.60;100.00;101452.47;5225404;28;20036;-70
2022/06/06 11:11:57;;;;;;;6.72;1.15;;;;;;;18.37;100.00;101460.09;5224235;28;20025;-70
2022/06/06 11:14:29;;;;;;;3.15;1.10;;;;;;;18.17;100.00;101453.75;5222197;28;20164;-70
2022/06/06 11:17:39;;;;;;;2.75;1.10;;;;;;;18.11;100.00;101442.66;5213686;28;20036;-70
2022/06/06 11:20:49;;;;;;;2.15;1.00;;;;;;;18.26;100.00;101436.25;5204180;28;20494;-70
2022/06/06 11:23:28;;;;;;;2.17;0.77;;;;;;;18.52;100.00;101443.66;5212589;28;20052;-69
2022/06/06 11:26:34;;;;;;;3.70;1.40;;;;;;;18.82;100.00;101441.44;5206635;28;20467;-70
2022/06/06 11:29:29;;;;;;;3.30;1.20;;;;;;;18.58;100.00;101442.84;5206511;28;20114;-70
2022/06/06 11:32:34;;;;;;;6.47;1.08;;;;;;;18.56;100.00;101434.88;5223589;28;20033;-70
2022/06/06 11:35:41;;;;;;;2.78;1.02;;;;;;;18.82;100.00;101434.13;5215133;28;20032;-70
2022/06/06 11:38:23;;;;;;;7.60;1.15;;;;;;;18.80;100.00;101447.09;5205166;28;20021;-69
2022/06/06 11:41:31;;;;;;;3.60;0.90;;;;;;;18.10;100.00;101438.25;5207251;28;20479;-69
2022/06/06 11:44:45;;;;;;;2.05;0.70;;;;;;;18.02;100.00;101445.72;5205272;28;20030;-69
2022/06/06 11:47:28;;;;;;;2.45;0.75;;;;;;;18.02;100.00;101454.75;5222483;28;20025;-69
2022/06/06 11:50:43;;;;;;;4.40;0.82;;;;;;;17.83;100.00;101458.16;5225374;28;20491;-70
2022/06/06 11:53:15;;;;;;;3.75;1.60;;;;;;;17.65;100.00;101452.38;5218012;28;20390;-69
2022/06/06 11:56:04;;;;;;;2.50;1.10;;;;;;;17.90;100.00;101448.19;5225404;28;20028;-69
2022/06/06 11:58:47;;;;;;;6.82;1.00;;;;;;;17.91;100.00;101446.28;5225007;28;20033;-69
2022/06/06 12:01:56;;;;;;;0.93;0.80;;;;;;;17.87;100.00;101440.41;5211327;28;20045;-69
2022/06/06 12:05:04;;;;;;;5.85;1.13;;;;;;;18.04;100.00;101441.78;5216973;28;20025;-70
2022/06/06 12:07:53;;;;;;;3.75;0.90;;;;;;;18.26;100.00;101437.06;5224771;28;20395;-69
2022/06/06 12:10:30;;;;;;;3.22;1.10;;;;;;;18.58;100.00;101448.28;5225053;28;20040;-69
2022/06/06 12:13:35;;;;;;;2.92;1.08;;;;;;;18.88;100.00;101446.91;5220966;28;20111;-69
2022/06/06 12:16:40;;;;;;;1.63;0.85;;;;;;;18.79;100.00;101445.44;5217591;28;20550;-69
2022/06/06 12:19:43;;;;;;;2.03;0.70;;;;;;;18.80;100.00;101449.00;5224661;28;20071;-69
2022/06/06 12:22:32;;;;;;;5.55;1.42;;;;;;;18.65;100.00;101443.69;5224552;28;20159;-69
2022/06/06 12:25:40;;;;;;;2.35;1.30;;;;;;;18.63;100.00;101448.50;5216789;28;20025;-69
2022/06/06 12:28:45;;;;;;;2.00;0.98;;;;;;;18.46;100.00;101445.31;5212309;28;20029;-70
2022/06/06 12:31:50;;;;;;;2.63;0.77;;;;;;;18.65;100.00;101457.28;5217141;28;20026;-69
2022/06/06 12:34:30;;;;;;;3.22;0.98;;;;;;;18.63;100.00;101454.78;5221569;28;20430;-69
2022/06/06 12:37:11;;;;;;;3.90;0.90;;;;;;;18.38;100.00;101449.06;5224104;28;20367;-69
2022/06/06 12:40:14;;;;;;;3.20;1.20;;;;;;;18.47;100.00;101452.41;5218353;28;20383;-69
2022/06/06 12:43:19;;;;;;;4.82;0.90;;;;;;;18.27;100.00;101457.78;5212497;28;20033;-69
2022/06/06 12:46:14;;;;;;;3.28;0.90;;;;;;;18.29;100.00;101461.13;5224343;28;20032;-69
2022/06/06 12:49:19;;;;;;;8.75;1.67;;;;;;;18.32;100.00;101455.31;5206833;28;20502;-69
2022/06/06 12:52:25;;;;;;;2.15;0.80;;;;;;;18.35;100.00;101454.03;5220010;28;20378;-69
2022/06/06 12:58:18;;;;;;;3.33;1.02;;;;;;;18.53;100.00;101458.94;5215627;28;20652;-69
2022/06/06 13:04:25;;;;;;;2.08;0.98;;;;;;;18.68;100.00;101448.75;5212124;28;20486;-70